PWSweather.com
Personal Weather Stations
Station Observations
270882
Flassian, LimouxFR 11300

FlassianLimouxFR 11300

Lat: 43.071798, Lon: 2.217292

Elevation: 165

Station Type: Oregon WMR 200

http://www.meteolimoux.fr

High Low Average
Temperature 84.7°F29.3°F 59.2°F15.1°F 72.8°F22.7°F
Dew Point 59.4°F15.2°F 53.2°F11.8°F 55.8°F13.2°F
Winds 10.1 mph -16.3 mph - Calm Calm 3.2 mph 5.1 mph
Wind Gusts 23.5 mph37.8 mph -- 6.5 mph10.5 mph
Humidity 85% 35% 58%
Pressure 30.22 in1023.40 in 30.13 in1020.30 in -
Precipitation 0.00 in0.00 in - -
Hour Temp Dew Point Humidity Winds Wind Gusts Pressure Precip Precip Rate Daily Precip Total
12:02 AM 65.1°F18.4°C 56.3°F13.5°C 73% Calm Calm -- 30.19 in1022.4 mb - 0.00 in0.0 mm 0.00 in0.0 mm
12:07 AM 65.1°F18.4°C 57.0°F13.9°C 75% Calm Calm -- 30.19 in1022.4 mb - 0.00 in0.0 mm 0.00 in0.0 mm
12:12 AM 64.9°F18.3°C 56.8°F13.8°C 75% Calm Calm -- 30.19 in1022.4 mb - 0.00 in0.0 mm 0.00 in0.0 mm
12:17 AM 64.9°F18.3°C 56.5°F13.6°C 74% Calm Calm -- 30.19 in1022.4 mb - 0.00 in0.0 mm 0.00 in0.0 mm
12:22 AM 64.8°F18.2°C 56.7°F13.7°C 75% Calm Calm -- 30.19 in1022.4 mb - 0.00 in0.0 mm 0.00 in0.0 mm
12:27 AM 64.8°F18.2°C 56.7°F13.7°C 75% Calm Calm -- 30.19 in1022.4 mb - 0.00 in0.0 mm 0.00 in0.0 mm
12:32 AM 64.6°F18.1°C 56.5°F13.6°C 75% Calm Calm -- 30.19 in1022.4 mb - 0.00 in0.0 mm 0.00 in0.0 mm
12:37 AM 64.4°F18.0°C 56.3°F13.5°C 75% Calm Calm -- 30.19 in1022.4 mb - 0.00 in0.0 mm 0.00 in0.0 mm
12:42 AM 64.4°F18.0°C 56.7°F13.7°C 76% Calm Calm -- 30.19 in1022.4 mb - 0.00 in0.0 mm 0.00 in0.0 mm
12:47 AM 64.2°F17.9°C 56.1°F13.4°C 75% Calm Calm -- 30.19 in1022.4 mb - 0.00 in0.0 mm 0.00 in0.0 mm
12:52 AM 64.0°F17.8°C 56.3°F13.5°C 76% Calm Calm -- 30.19 in1022.4 mb - 0.00 in0.0 mm 0.00 in0.0 mm
12:57 AM 64.0°F17.8°C 56.3°F13.5°C 76% Calm Calm -- 30.19 in1022.4 mb - 0.00 in0.0 mm 0.00 in0.0 mm
01:02 AM 64.0°F17.8°C 56.3°F13.5°C 76% Calm Calm -- 30.19 in1022.4 mb - 0.00 in0.0 mm 0.00 in0.0 mm
01:07 AM 63.9°F17.7°C 56.5°F13.6°C 77% Calm Calm -- 30.19 in1022.4 mb - 0.00 in0.0 mm 0.00 in0.0 mm
01:12 AM 63.9°F17.7°C 56.5°F13.6°C 77% Calm Calm -- 30.19 in1022.4 mb - 0.00 in0.0 mm 0.00 in0.0 mm
01:17 AM 63.7°F17.6°C 56.3°F13.5°C 77% Calm Calm -- 30.19 in1022.4 mb - 0.00 in0.0 mm 0.00 in0.0 mm
01:22 AM 63.7°F17.6°C 56.3°F13.5°C 77% Calm Calm -- 30.19 in1022.4 mb - 0.00 in0.0 mm 0.00 in0.0 mm
01:27 AM 63.5°F17.5°C 56.1°F13.4°C 77% Calm Calm -- 30.19 in1022.4 mb - 0.00 in0.0 mm 0.00 in0.0 mm
01:32 AM 63.3°F17.4°C 55.9°F13.3°C 77% Calm Calm -- 30.19 in1022.4 mb - 0.00 in0.0 mm 0.00 in0.0 mm
01:37 AM 63.3°F17.4°C 55.9°F13.3°C 77% Calm Calm -- 30.19 in1022.4 mb - 0.00 in0.0 mm 0.00 in0.0 mm
01:42 AM 63.1°F17.3°C 55.8°F13.2°C 77% Calm Calm -- 30.19 in1022.4 mb - 0.00 in0.0 mm 0.00 in0.0 mm
01:47 AM 63.1°F17.3°C 56.5°F13.6°C 79% Calm Calm -- 30.19 in1022.4 mb - 0.00 in0.0 mm 0.00 in0.0 mm
01:52 AM 63.0°F17.2°C 56.3°F13.5°C 79% Calm Calm -- 30.19 in1022.4 mb - 0.00 in0.0 mm 0.00 in0.0 mm
01:57 AM 63.0°F17.2°C 55.9°F13.3°C 78% Calm Calm -- 30.19 in1022.4 mb - 0.00 in0.0 mm 0.00 in0.0 mm
02:02 AM 62.8°F17.1°C 55.8°F13.2°C 78% Calm Calm -- 30.19 in1022.4 mb - 0.00 in0.0 mm 0.00 in0.0 mm
02:07 AM 62.6°F17.0°C 55.6°F13.1°C 78% Calm Calm -- 30.19 in1022.4 mb - 0.00 in0.0 mm 0.00 in0.0 mm
02:12 AM 62.6°F17.0°C 55.6°F13.1°C 78% Calm Calm -- 30.19 in1022.4 mb - 0.00 in0.0 mm 0.00 in0.0 mm
02:17 AM 62.6°F17.0°C 55.6°F13.1°C 78% Calm Calm -- 30.19 in1022.4 mb - 0.00 in0.0 mm 0.00 in0.0 mm
02:22 AM 62.4°F16.9°C 56.1°F13.4°C 80% Calm Calm -- 30.19 in1022.4 mb - 0.00 in0.0 mm 0.00 in0.0 mm
02:27 AM 62.2°F16.8°C 55.9°F13.3°C 80% Calm Calm -- 30.19 in1022.4 mb - 0.00 in0.0 mm 0.00 in0.0 mm
02:32 AM 62.2°F16.8°C 55.9°F13.3°C 80% Calm Calm -- 30.19 in1022.4 mb - 0.00 in0.0 mm 0.00 in0.0 mm
02:37 AM 62.1°F16.7°C 55.8°F13.2°C 80% Calm Calm -- 30.19 in1022.4 mb - 0.00 in0.0 mm 0.00 in0.0 mm
02:42 AM 62.1°F16.7°C 55.8°F13.2°C 80% Calm Calm -- 30.19 in1022.4 mb - 0.00 in0.0 mm 0.00 in0.0 mm
02:47 AM 62.1°F16.7°C 55.8°F13.2°C 80% Calm Calm -- 30.16 in1021.3 mb - 0.00 in0.0 mm 0.00 in0.0 mm
02:52 AM 61.9°F16.6°C 55.6°F13.1°C 80% Calm Calm -- 30.16 in1021.3 mb - 0.00 in0.0 mm 0.00 in0.0 mm
02:57 AM 61.9°F16.6°C 55.6°F13.1°C 80% Calm Calm -- 30.16 in1021.3 mb - 0.00 in0.0 mm 0.00 in0.0 mm
03:02 AM 61.7°F16.5°C 55.4°F13.0°C 80% Calm Calm -- 30.16 in1021.3 mb - 0.00 in0.0 mm 0.00 in0.0 mm
03:07 AM 61.7°F16.5°C 55.4°F13.0°C 80% Calm Calm -- 30.16 in1021.3 mb - 0.00 in0.0 mm 0.00 in0.0 mm
03:12 AM 61.5°F16.4°C 55.6°F13.1°C 81% Calm Calm -- 30.16 in1021.3 mb - 0.00 in0.0 mm 0.00 in0.0 mm
03:17 AM 61.3°F16.3°C 55.4°F13.0°C 81% Calm Calm -- 30.19 in1022.4 mb - 0.00 in0.0 mm 0.00 in0.0 mm
03:22 AM 61.3°F16.3°C 55.8°F13.2°C 82% Calm Calm -- 30.19 in1022.4 mb - 0.00 in0.0 mm 0.00 in0.0 mm
03:27 AM 61.2°F16.2°C 55.6°F13.1°C 82% Calm Calm -- 30.19 in1022.4 mb - 0.00 in0.0 mm 0.00 in0.0 mm
03:32 AM 61.2°F16.2°C 55.6°F13.1°C 82% Calm Calm -- 30.16 in1021.3 mb - 0.00 in0.0 mm 0.00 in0.0 mm
03:37 AM 61.2°F16.2°C 55.6°F13.1°C 82% Calm Calm -- 30.16 in1021.3 mb - 0.00 in0.0 mm 0.00 in0.0 mm
03:42 AM 61.0°F16.1°C 55.4°F13.0°C 82% Calm Calm -- 30.16 in1021.3 mb - 0.00 in0.0 mm 0.00 in0.0 mm
03:47 AM 61.0°F16.1°C 55.4°F13.0°C 82% Calm Calm -- 30.19 in1022.4 mb - 0.00 in0.0 mm 0.00 in0.0 mm
03:52 AM 60.8°F16.0°C 55.2°F12.9°C 82% Calm Calm -- 30.19 in1022.4 mb - 0.00 in0.0 mm 0.00 in0.0 mm
03:57 AM 60.8°F16.0°C 55.2°F12.9°C 82% Calm Calm -- 30.19 in1022.4 mb - 0.00 in0.0 mm 0.00 in0.0 mm
04:02 AM 60.6°F15.9°C 55.0°F12.8°C 82% Calm Calm -- 30.19 in1022.4 mb - 0.00 in0.0 mm 0.00 in0.0 mm
04:07 AM 60.6°F15.9°C 55.0°F12.8°C 82% Calm Calm -- 30.19 in1022.4 mb - 0.00 in0.0 mm 0.00 in0.0 mm
04:12 AM 60.4°F15.8°C 54.9°F12.7°C 82% Calm Calm -- 30.19 in1022.4 mb - 0.00 in0.0 mm 0.00 in0.0 mm
04:17 AM 60.3°F15.7°C 55.0°F12.8°C 83% Calm Calm -- 30.19 in1022.4 mb - 0.00 in0.0 mm 0.00 in0.0 mm
04:22 AM 60.3°F15.7°C 54.7°F12.6°C 82% Calm Calm -- 30.19 in1022.4 mb - 0.00 in0.0 mm 0.00 in0.0 mm
04:27 AM 60.1°F15.6°C 54.5°F12.5°C 82% Calm Calm -- 30.19 in1022.4 mb - 0.00 in0.0 mm 0.00 in0.0 mm
04:32 AM 60.1°F15.6°C 54.9°F12.7°C 83% Calm Calm -- 30.16 in1021.3 mb - 0.00 in0.0 mm 0.00 in0.0 mm
04:37 AM 60.1°F15.6°C 54.9°F12.7°C 83% Calm Calm -- 30.16 in1021.3 mb - 0.00 in0.0 mm 0.00 in0.0 mm
04:42 AM 60.1°F15.6°C 54.9°F12.7°C 83% Calm Calm -- 30.16 in1021.3 mb - 0.00 in0.0 mm 0.00 in0.0 mm
04:47 AM 59.9°F15.5°C 54.7°F12.6°C 83% Calm Calm -- 30.16 in1021.3 mb - 0.00 in0.0 mm 0.00 in0.0 mm
04:52 AM 59.9°F15.5°C 54.7°F12.6°C 83% Calm Calm -- 30.16 in1021.3 mb - 0.00 in0.0 mm 0.00 in0.0 mm
04:57 AM 59.9°F15.5°C 54.7°F12.6°C 83% Calm Calm -- 30.16 in1021.3 mb - 0.00 in0.0 mm 0.00 in0.0 mm
05:02 AM 59.9°F15.5°C 54.7°F12.6°C 83% Calm Calm -- 30.19 in1022.4 mb - 0.00 in0.0 mm 0.00 in0.0 mm
05:07 AM 59.9°F15.5°C 54.7°F12.6°C 83% Calm Calm -- 30.19 in1022.4 mb - 0.00 in0.0 mm 0.00 in0.0 mm
05:12 AM 59.9°F15.5°C 54.7°F12.6°C 83% Calm Calm -- 30.19 in1022.4 mb - 0.00 in0.0 mm 0.00 in0.0 mm
05:17 AM 59.7°F15.4°C 54.5°F12.5°C 83% Calm Calm -- 30.16 in1021.3 mb - 0.00 in0.0 mm 0.00 in0.0 mm
05:22 AM 59.7°F15.4°C 54.5°F12.5°C 83% Calm Calm -- 30.16 in1021.3 mb - 0.00 in0.0 mm 0.00 in0.0 mm
05:27 AM 59.5°F15.3°C 54.3°F12.4°C 83% Calm Calm -- 30.16 in1021.3 mb - 0.00 in0.0 mm 0.00 in0.0 mm
05:32 AM 59.5°F15.3°C 54.3°F12.4°C 83% Calm Calm -- 30.16 in1021.3 mb - 0.00 in0.0 mm 0.00 in0.0 mm
05:37 AM 59.5°F15.3°C 54.3°F12.4°C 83% Calm Calm -- 30.16 in1021.3 mb - 0.00 in0.0 mm 0.00 in0.0 mm
05:42 AM 59.4°F15.2°C 54.1°F12.3°C 83% Calm Calm -- 30.16 in1021.3 mb - 0.00 in0.0 mm 0.00 in0.0 mm
05:47 AM 59.4°F15.2°C 54.1°F12.3°C 83% Calm Calm -- 30.19 in1022.4 mb - 0.00 in0.0 mm 0.00 in0.0 mm
05:52 AM 59.4°F15.2°C 54.5°F12.5°C 84% Calm Calm -- 30.19 in1022.4 mb - 0.00 in0.0 mm 0.00 in0.0 mm
05:57 AM 59.4°F15.2°C 54.5°F12.5°C 84% Calm Calm -- 30.19 in1022.4 mb - 0.00 in0.0 mm 0.00 in0.0 mm
06:02 AM 59.2°F15.1°C 54.0°F12.2°C 83% Calm Calm -- 30.19 in1022.4 mb - 0.00 in0.0 mm 0.00 in0.0 mm
06:07 AM 59.2°F15.1°C 54.3°F12.4°C 84% Calm Calm -- 30.19 in1022.4 mb - 0.00 in0.0 mm 0.00 in0.0 mm
06:12 AM 59.2°F15.1°C 54.3°F12.4°C 84% Calm Calm -- 30.19 in1022.4 mb - 0.00 in0.0 mm 0.00 in0.0 mm
06:17 AM 59.2°F15.1°C 54.7°F12.6°C 85% Calm Calm -- 30.19 in1022.4 mb - 0.00 in0.0 mm 0.00 in0.0 mm
06:22 AM 59.4°F15.2°C 54.9°F12.7°C 85% Calm Calm -- 30.19 in1022.4 mb - 0.00 in0.0 mm 0.00 in0.0 mm
06:27 AM 59.5°F15.3°C 55.0°F12.8°C 85% Calm Calm -- 30.19 in1022.4 mb - 0.00 in0.0 mm 0.00 in0.0 mm
06:32 AM 59.7°F15.4°C 55.2°F12.9°C 85% Calm Calm -- 30.19 in1022.4 mb - 0.00 in0.0 mm 0.00 in0.0 mm
06:37 AM 59.9°F15.5°C 55.4°F13.0°C 85% Calm Calm -- 30.19 in1022.4 mb - 0.00 in0.0 mm 0.00 in0.0 mm
06:42 AM 60.3°F15.7°C 55.4°F13.0°C 84% Calm Calm -- 30.19 in1022.4 mb - 0.00 in0.0 mm 0.00 in0.0 mm
06:47 AM 60.4°F15.8°C 55.6°F13.1°C 84% Calm Calm -- 30.19 in1022.4 mb - 0.00 in0.0 mm 0.00 in0.0 mm
06:52 AM 60.8°F16.0°C 55.9°F13.3°C 84% Calm Calm -- 30.19 in1022.4 mb - 0.00 in0.0 mm 0.00 in0.0 mm
06:57 AM 61.3°F16.3°C 56.5°F13.6°C 84% 0.4 mph WSW0.6 kmh WSW 2.9 mph4.7 kmh 30.19 in1022.4 mb - 0.00 in0.0 mm 0.00 in0.0 mm
07:02 AM 61.7°F16.5°C 56.5°F13.6°C 83% Calm Calm 1.8 mph2.9 kmh 30.19 in1022.4 mb - 0.00 in0.0 mm 0.00 in0.0 mm
07:07 AM 61.9°F16.6°C 56.3°F13.5°C 82% 0.9 mph SW1.4 kmh SW 3.8 mph6.1 kmh 30.19 in1022.4 mb - 0.00 in0.0 mm 0.00 in0.0 mm
07:12 AM 62.4°F16.9°C 56.8°F13.8°C 82% 0.4 mph SW0.6 kmh SW 3.1 mph5.0 kmh 30.19 in1022.4 mb - 0.00 in0.0 mm 0.00 in0.0 mm
07:17 AM 62.8°F17.1°C 56.8°F13.8°C 81% 0.2 mph SSW0.3 kmh SSW 2.5 mph4.0 kmh 30.19 in1022.4 mb - 0.00 in0.0 mm 0.00 in0.0 mm
07:22 AM 63.1°F17.3°C 56.8°F13.8°C 80% Calm Calm -- 30.19 in1022.4 mb - 0.00 in0.0 mm 0.00 in0.0 mm
07:27 AM 63.7°F17.6°C 57.0°F13.9°C 79% Calm Calm -- 30.19 in1022.4 mb - 0.00 in0.0 mm 0.00 in0.0 mm
07:32 AM 64.0°F17.8°C 57.4°F14.1°C 79% Calm Calm -- 30.19 in1022.4 mb - 0.00 in0.0 mm 0.00 in0.0 mm
07:37 AM 64.4°F18.0°C 57.4°F14.1°C 78% Calm Calm -- 30.19 in1022.4 mb - 0.00 in0.0 mm 0.00 in0.0 mm
07:42 AM 65.3°F18.5°C 57.9°F14.4°C 77% Calm Calm -- 30.19 in1022.4 mb - 0.00 in0.0 mm 0.00 in0.0 mm
07:47 AM 65.7°F18.7°C 57.9°F14.4°C 76% 0.2 mph SSW0.3 kmh SSW 2.5 mph4.0 kmh 30.19 in1022.4 mb - 0.00 in0.0 mm 0.00 in0.0 mm
07:52 AM 66.2°F19.0°C 57.4°F14.1°C 73% Calm Calm -- 30.19 in1022.4 mb - 0.00 in0.0 mm 0.00 in0.0 mm
07:57 AM 66.7°F19.3°C 57.0°F13.9°C 71% Calm Calm -- 30.19 in1022.4 mb - 0.00 in0.0 mm 0.00 in0.0 mm
08:02 AM 67.1°F19.5°C 57.7°F14.3°C 72% Calm Calm -- 30.19 in1022.4 mb - 0.00 in0.0 mm 0.00 in0.0 mm
08:07 AM 67.8°F19.9°C 58.5°F14.7°C 72% Calm Calm -- 30.19 in1022.4 mb - 0.00 in0.0 mm 0.00 in0.0 mm
08:12 AM 68.2°F20.1°C 58.1°F14.5°C 70% Calm Calm -- 30.19 in1022.4 mb - 0.00 in0.0 mm 0.00 in0.0 mm
08:17 AM 68.9°F20.5°C 57.9°F14.4°C 68% Calm Calm -- 30.22 in1023.4 mb - 0.00 in0.0 mm 0.00 in0.0 mm
08:22 AM 69.6°F20.9°C 57.7°F14.3°C 66% Calm Calm -- 30.22 in1023.4 mb - 0.00 in0.0 mm 0.00 in0.0 mm
08:27 AM 70.2°F21.2°C 57.9°F14.4°C 65% 0.2 mph S0.3 kmh S 1.8 mph2.9 kmh 30.22 in1023.4 mb - 0.00 in0.0 mm 0.00 in0.0 mm
08:32 AM 70.7°F21.5°C 58.8°F14.9°C 66% 0.2 mph SSE0.3 kmh SSE 2.0 mph3.2 kmh 30.22 in1023.4 mb - 0.00 in0.0 mm 0.00 in0.0 mm
08:37 AM 71.4°F21.9°C 59.0°F15.0°C 65% Calm Calm -- 30.22 in1023.4 mb - 0.00 in0.0 mm 0.00 in0.0 mm
08:42 AM 71.6°F22.0°C 58.3°F14.6°C 63% Calm Calm -- 30.22 in1023.4 mb - 0.00 in0.0 mm 0.00 in0.0 mm
08:47 AM 71.8°F22.1°C 58.1°F14.5°C 62% 3.6 mph NNW5.8 kmh NNW 7.4 mph11.9 kmh 30.19 in1022.4 mb - 0.00 in0.0 mm 0.00 in0.0 mm
08:52 AM 72.1°F22.3°C 58.5°F14.7°C 62% 2.0 mph NW3.2 kmh NW 5.1 mph8.2 kmh 30.19 in1022.4 mb - 0.00 in0.0 mm 0.00 in0.0 mm
08:57 AM 72.7°F22.6°C 57.9°F14.4°C 60% 2.7 mph NW4.3 kmh NW 6.5 mph10.5 kmh 30.19 in1022.4 mb - 0.00 in0.0 mm 0.00 in0.0 mm
09:02 AM 73.0°F22.8°C 57.9°F14.4°C 59% 3.6 mph NW5.8 kmh NW 9.6 mph15.4 kmh 30.22 in1023.4 mb - 0.00 in0.0 mm 0.00 in0.0 mm
09:07 AM 73.0°F22.8°C 57.9°F14.4°C 59% 4.0 mph NNW6.4 kmh NNW 4.0 mph6.4 kmh 30.22 in1023.4 mb - 0.00 in0.0 mm 0.00 in0.0 mm
09:12 AM 73.6°F23.1°C 58.5°F14.7°C 59% 5.8 mph WNW9.3 kmh WNW 10.7 mph17.2 kmh 30.22 in1023.4 mb - 0.00 in0.0 mm 0.00 in0.0 mm
09:17 AM 73.9°F23.3°C 58.6°F14.8°C 59% 4.7 mph NW7.6 kmh NW 9.6 mph15.4 kmh 30.22 in1023.4 mb - 0.00 in0.0 mm 0.00 in0.0 mm
09:22 AM 74.3°F23.5°C 58.6°F14.8°C 58% 3.1 mph NNE5.0 kmh NNE 6.3 mph10.1 kmh 30.22 in1023.4 mb - 0.00 in0.0 mm 0.00 in0.0 mm
09:27 AM 74.7°F23.7°C 57.9°F14.4°C 56% 3.8 mph NW6.1 kmh NW 8.3 mph13.4 kmh 30.22 in1023.4 mb - 0.00 in0.0 mm 0.00 in0.0 mm
09:32 AM 74.8°F23.8°C 57.6°F14.2°C 55% 4.5 mph NW7.2 kmh NW 9.6 mph15.4 kmh 30.22 in1023.4 mb - 0.00 in0.0 mm 0.00 in0.0 mm
09:37 AM 74.7°F23.7°C 55.9°F13.3°C 52% 6.0 mph NW9.7 kmh NW 11.9 mph19.2 kmh 30.22 in1023.4 mb - 0.00 in0.0 mm 0.00 in0.0 mm
09:42 AM 74.8°F23.8°C 56.1°F13.4°C 52% 8.5 mph NW13.7 kmh NW 17.0 mph27.4 kmh 30.22 in1023.4 mb - 0.00 in0.0 mm 0.00 in0.0 mm
09:47 AM 75.2°F24.0°C 56.3°F13.5°C 52% 7.4 mph NW11.9 kmh NW 13.9 mph22.4 kmh 30.22 in1023.4 mb - 0.00 in0.0 mm 0.00 in0.0 mm
09:52 AM 75.4°F24.1°C 56.5°F13.6°C 52% 8.1 mph NW13.0 kmh NW 8.1 mph13.0 kmh 30.22 in1023.4 mb - 0.00 in0.0 mm 0.00 in0.0 mm
09:57 AM 75.7°F24.3°C 56.8°F13.8°C 52% 7.6 mph NW12.2 kmh NW 13.2 mph21.2 kmh 30.22 in1023.4 mb - 0.00 in0.0 mm 0.00 in0.0 mm
10:02 AM 75.9°F24.4°C 57.0°F13.9°C 52% 6.7 mph NNW10.8 kmh NNW 11.6 mph18.7 kmh 30.22 in1023.4 mb - 0.00 in0.0 mm 0.00 in0.0 mm
10:07 AM 76.5°F24.7°C 58.1°F14.5°C 53% 6.9 mph NW11.1 kmh NW 6.9 mph11.1 kmh 30.22 in1023.4 mb - 0.00 in0.0 mm 0.00 in0.0 mm
10:12 AM 76.6°F24.8°C 58.3°F14.6°C 53% 4.7 mph NNE7.6 kmh NNE 10.3 mph16.6 kmh 30.22 in1023.4 mb - 0.00 in0.0 mm 0.00 in0.0 mm
10:17 AM 76.8°F24.9°C 57.9°F14.4°C 52% 5.4 mph N8.7 kmh N 10.1 mph16.3 kmh 30.22 in1023.4 mb - 0.00 in0.0 mm 0.00 in0.0 mm
10:22 AM 77.0°F25.0°C 57.6°F14.2°C 51% 5.8 mph NW9.3 kmh NW 13.0 mph20.9 kmh 30.22 in1023.4 mb - 0.00 in0.0 mm 0.00 in0.0 mm
10:27 AM 77.4°F25.2°C 57.7°F14.3°C 51% 5.1 mph NW8.2 kmh NW 12.3 mph19.8 kmh 30.22 in1023.4 mb - 0.00 in0.0 mm 0.00 in0.0 mm
10:32 AM 77.0°F25.0°C 57.0°F13.9°C 50% 6.0 mph N9.7 kmh N 10.3 mph16.6 kmh 30.22 in1023.4 mb - 0.00 in0.0 mm 0.00 in0.0 mm
10:37 AM 77.2°F25.1°C 57.0°F13.9°C 50% 4.5 mph WNW7.2 kmh WNW 12.5 mph20.1 kmh 30.22 in1023.4 mb - 0.00 in0.0 mm 0.00 in0.0 mm
10:42 AM 77.7°F25.4°C 57.6°F14.2°C 50% 6.0 mph WNW9.7 kmh WNW 13.0 mph20.9 kmh 30.22 in1023.4 mb - 0.00 in0.0 mm 0.00 in0.0 mm
10:47 AM 77.9°F25.5°C 58.3°F14.6°C 51% 2.5 mph NW4.0 kmh NW 10.5 mph16.9 kmh 30.22 in1023.4 mb - 0.00 in0.0 mm 0.00 in0.0 mm
10:52 AM 77.9°F25.5°C 57.7°F14.3°C 50% 6.5 mph WNW10.5 kmh WNW 12.5 mph20.1 kmh 30.22 in1023.4 mb - 0.00 in0.0 mm 0.00 in0.0 mm
10:57 AM 78.3°F25.7°C 58.1°F14.5°C 50% 6.9 mph WNW11.1 kmh WNW 11.9 mph19.2 kmh 30.22 in1023.4 mb - 0.00 in0.0 mm 0.00 in0.0 mm
11:02 AM 78.4°F25.8°C 58.3°F14.6°C 50% 5.8 mph N9.3 kmh N 11.6 mph18.7 kmh 30.19 in1022.4 mb - 0.00 in0.0 mm 0.00 in0.0 mm
11:07 AM 78.4°F25.8°C 58.3°F14.6°C 50% 7.2 mph NW11.6 kmh NW 13.2 mph21.2 kmh 30.19 in1022.4 mb - 0.00 in0.0 mm 0.00 in0.0 mm
11:12 AM 78.8°F26.0°C 58.1°F14.5°C 49% 6.7 mph NNW10.8 kmh NNW 15.0 mph24.1 kmh 30.19 in1022.4 mb - 0.00 in0.0 mm 0.00 in0.0 mm
11:17 AM 79.0°F26.1°C 58.8°F14.9°C 50% 4.3 mph 6.9 kmh 11.6 mph18.7 kmh 30.19 in1022.4 mb - 0.00 in0.0 mm 0.00 in0.0 mm
11:22 AM 79.0°F26.1°C 58.8°F14.9°C 50% 6.5 mph NW10.5 kmh NW 12.1 mph19.5 kmh 30.19 in1022.4 mb - 0.00 in0.0 mm 0.00 in0.0 mm
11:27 AM 79.2°F26.2°C 58.3°F14.6°C 49% 7.6 mph WNW12.2 kmh WNW 14.1 mph22.7 kmh 30.19 in1022.4 mb - 0.00 in0.0 mm 0.00 in0.0 mm
11:32 AM 79.7°F26.5°C 59.4°F15.2°C 50% 6.5 mph W10.5 kmh W 16.8 mph27.0 kmh 30.19 in1022.4 mb - 0.00 in0.0 mm 0.00 in0.0 mm
11:37 AM 80.2°F26.8°C 59.4°F15.2°C 49% 6.0 mph WNW9.7 kmh WNW 13.6 mph21.9 kmh 30.19 in1022.4 mb - 0.00 in0.0 mm 0.00 in0.0 mm
11:42 AM 80.1°F26.7°C 58.6°F14.8°C 48% 4.9 mph WNW7.9 kmh WNW 12.1 mph19.5 kmh 30.19 in1022.4 mb - 0.00 in0.0 mm 0.00 in0.0 mm
11:47 AM 79.9°F26.6°C 57.9°F14.4°C 47% 7.6 mph WNW12.2 kmh WNW 17.4 mph28.0 kmh 30.19 in1022.4 mb - 0.00 in0.0 mm 0.00 in0.0 mm
11:52 AM 80.1°F26.7°C 57.4°F14.1°C 46% 8.5 mph NW13.7 kmh NW 14.5 mph23.3 kmh 30.19 in1022.4 mb - 0.00 in0.0 mm 0.00 in0.0 mm
11:57 AM 80.2°F26.8°C 57.6°F14.2°C 46% 7.2 mph WSW11.6 kmh WSW 16.3 mph26.2 kmh 30.19 in1022.4 mb - 0.00 in0.0 mm 0.00 in0.0 mm
12:02 PM 80.4°F26.9°C 57.7°F14.3°C 46% 9.2 mph NW14.8 kmh NW 15.9 mph25.6 kmh 30.19 in1022.4 mb - 0.00 in0.0 mm 0.00 in0.0 mm
12:07 PM 80.2°F26.8°C 57.6°F14.2°C 46% 8.5 mph NW13.7 kmh NW 14.8 mph23.8 kmh 30.19 in1022.4 mb - 0.00 in0.0 mm 0.00 in0.0 mm
12:12 PM 80.2°F26.8°C 57.6°F14.2°C 46% 8.1 mph NW13.0 kmh NW 15.4 mph24.8 kmh 30.19 in1022.4 mb - 0.00 in0.0 mm 0.00 in0.0 mm
12:17 PM 80.6°F27.0°C 57.4°F14.1°C 45% 8.5 mph NW13.7 kmh NW 17.9 mph28.8 kmh 30.19 in1022.4 mb - 0.00 in0.0 mm 0.00 in0.0 mm
12:22 PM 81.0°F27.2°C 57.0°F13.9°C 44% 6.7 mph NNW10.8 kmh NNW 15.2 mph24.5 kmh 30.19 in1022.4 mb - 0.00 in0.0 mm 0.00 in0.0 mm
12:27 PM 81.1°F27.3°C 57.7°F14.3°C 45% 7.2 mph WSW11.6 kmh WSW 17.2 mph27.7 kmh 30.19 in1022.4 mb - 0.00 in0.0 mm 0.00 in0.0 mm
12:32 PM 81.0°F27.2°C 56.3°F13.5°C 43% 4.5 mph NNW7.2 kmh NNW 12.1 mph19.5 kmh 30.19 in1022.4 mb - 0.00 in0.0 mm 0.00 in0.0 mm
12:37 PM 81.0°F27.2°C 56.3°F13.5°C 43% 7.6 mph NW12.2 kmh NW 16.6 mph26.7 kmh 30.19 in1022.4 mb - 0.00 in0.0 mm 0.00 in0.0 mm
12:42 PM 81.0°F27.2°C 56.3°F13.5°C 43% 7.4 mph W11.9 kmh W 15.7 mph25.3 kmh 30.19 in1022.4 mb - 0.00 in0.0 mm 0.00 in0.0 mm
12:47 PM 81.0°F27.2°C 56.3°F13.5°C 43% 9.2 mph NW14.8 kmh NW 19.2 mph30.9 kmh 30.19 in1022.4 mb - 0.00 in0.0 mm 0.00 in0.0 mm
12:52 PM 81.1°F27.3°C 56.5°F13.6°C 43% 8.5 mph NW13.7 kmh NW 14.1 mph22.7 kmh 30.19 in1022.4 mb - 0.00 in0.0 mm 0.00 in0.0 mm
12:57 PM 81.7°F27.6°C 57.0°F13.9°C 43% 7.2 mph NW11.6 kmh NW 17.0 mph27.4 kmh 30.19 in1022.4 mb - 0.00 in0.0 mm 0.00 in0.0 mm
01:02 PM 81.7°F27.6°C 56.3°F13.5°C 42% 6.5 mph NW10.5 kmh NW 13.6 mph21.9 kmh 30.16 in1021.3 mb - 0.00 in0.0 mm 0.00 in0.0 mm
01:07 PM 81.7°F27.6°C 56.3°F13.5°C 42% 5.8 mph WNW9.3 kmh WNW 13.9 mph22.4 kmh 30.16 in1021.3 mb - 0.00 in0.0 mm 0.00 in0.0 mm
01:12 PM 81.7°F27.6°C 56.3°F13.5°C 42% 7.6 mph W12.2 kmh W 16.3 mph26.2 kmh 30.16 in1021.3 mb - 0.00 in0.0 mm 0.00 in0.0 mm
01:17 PM 81.7°F27.6°C 56.3°F13.5°C 42% 7.4 mph WNW11.9 kmh WNW 15.4 mph24.8 kmh 30.16 in1021.3 mb - 0.00 in0.0 mm 0.00 in0.0 mm
01:22 PM 82.0°F27.8°C 56.7°F13.7°C 42% 9.2 mph WSW14.8 kmh WSW 17.4 mph28.0 kmh 30.16 in1021.3 mb - 0.00 in0.0 mm 0.00 in0.0 mm
01:27 PM 82.0°F27.8°C 56.7°F13.7°C 42% 7.4 mph NW11.9 kmh NW 15.2 mph24.5 kmh 30.16 in1021.3 mb - 0.00 in0.0 mm 0.00 in0.0 mm
01:32 PM 82.4°F28.0°C 56.3°F13.5°C 41% 7.4 mph W11.9 kmh W 13.0 mph20.9 kmh 30.16 in1021.3 mb - 0.00 in0.0 mm 0.00 in0.0 mm
01:37 PM 82.4°F28.0°C 56.3°F13.5°C 41% 7.4 mph NW11.9 kmh NW 13.4 mph21.6 kmh 30.16 in1021.3 mb - 0.00 in0.0 mm 0.00 in0.0 mm
01:42 PM 82.8°F28.2°C 57.4°F14.1°C 42% 9.6 mph WNW15.4 kmh WNW 23.5 mph37.8 kmh 30.16 in1021.3 mb - 0.00 in0.0 mm 0.00 in0.0 mm
01:47 PM 82.6°F28.1°C 56.5°F13.6°C 41% 7.6 mph W12.2 kmh W 14.1 mph22.7 kmh 30.19 in1022.4 mb - 0.00 in0.0 mm 0.00 in0.0 mm
01:52 PM 82.9°F28.3°C 55.4°F13.0°C 39% 8.1 mph WNW13.0 kmh WNW 21.0 mph33.8 kmh 30.19 in1022.4 mb - 0.00 in0.0 mm 0.00 in0.0 mm
01:57 PM 83.1°F28.4°C 56.3°F13.5°C 40% 6.5 mph W10.5 kmh W 11.6 mph18.7 kmh 30.19 in1022.4 mb - 0.00 in0.0 mm 0.00 in0.0 mm
02:02 PM 82.9°F28.3°C 56.1°F13.4°C 40% 6.9 mph NW11.1 kmh NW 14.3 mph23.0 kmh 30.16 in1021.3 mb - 0.00 in0.0 mm 0.00 in0.0 mm
02:07 PM 83.1°F28.4°C 55.6°F13.1°C 39% 6.7 mph NW10.8 kmh NW 15.7 mph25.3 kmh 30.16 in1021.3 mb - 0.00 in0.0 mm 0.00 in0.0 mm
02:12 PM 82.8°F28.2°C 55.2°F12.9°C 39% 6.9 mph WNW11.1 kmh WNW 14.8 mph23.8 kmh 30.16 in1021.3 mb - 0.00 in0.0 mm 0.00 in0.0 mm
02:17 PM 82.9°F28.3°C 55.4°F13.0°C 39% 10.1 mph NW16.3 kmh NW 18.3 mph29.5 kmh 30.16 in1021.3 mb - 0.00 in0.0 mm 0.00 in0.0 mm
02:22 PM 83.3°F28.5°C 55.8°F13.2°C 39% 9.2 mph NW14.8 kmh NW 9.2 mph14.8 kmh 30.16 in1021.3 mb - 0.00 in0.0 mm 0.00 in0.0 mm
02:27 PM 83.1°F28.4°C 55.6°F13.1°C 39% 7.2 mph NW11.6 kmh NW 12.3 mph19.8 kmh 30.16 in1021.3 mb - 0.00 in0.0 mm 0.00 in0.0 mm
02:32 PM 83.3°F28.5°C 55.8°F13.2°C 39% 6.5 mph WSW10.5 kmh WSW 12.8 mph20.6 kmh 30.16 in1021.3 mb - 0.00 in0.0 mm 0.00 in0.0 mm
02:37 PM 83.7°F28.7°C 56.1°F13.4°C 39% 8.7 mph WNW14.0 kmh WNW 17.4 mph28.0 kmh 30.16 in1021.3 mb - 0.00 in0.0 mm 0.00 in0.0 mm
02:42 PM 83.7°F28.7°C 55.4°F13.0°C 38% 5.8 mph NW9.3 kmh NW 9.6 mph15.4 kmh 30.16 in1021.3 mb - 0.00 in0.0 mm 0.00 in0.0 mm
02:47 PM 83.5°F28.6°C 55.9°F13.3°C 39% 7.2 mph NW11.6 kmh NW 17.0 mph27.4 kmh 30.16 in1021.3 mb - 0.00 in0.0 mm 0.00 in0.0 mm
02:52 PM 84.0°F28.9°C 55.8°F13.2°C 38% 7.8 mph WNW12.6 kmh WNW 16.3 mph26.2 kmh 30.16 in1021.3 mb - 0.00 in0.0 mm 0.00 in0.0 mm
02:57 PM 83.8°F28.8°C 55.6°F13.1°C 38% 6.3 mph N10.1 kmh N 17.4 mph28.0 kmh 30.16 in1021.3 mb - 0.00 in0.0 mm 0.00 in0.0 mm
03:02 PM 83.7°F28.7°C 55.4°F13.0°C 38% 8.1 mph NW13.0 kmh NW 16.1 mph25.9 kmh 30.13 in1020.3 mb - 0.00 in0.0 mm 0.00 in0.0 mm
03:07 PM 83.8°F28.8°C 55.6°F13.1°C 38% 7.4 mph NW11.9 kmh NW 15.4 mph24.8 kmh 30.13 in1020.3 mb - 0.00 in0.0 mm 0.00 in0.0 mm
03:12 PM 84.0°F28.9°C 55.8°F13.2°C 38% 7.4 mph WNW11.9 kmh WNW 13.6 mph21.9 kmh 30.13 in1020.3 mb - 0.00 in0.0 mm 0.00 in0.0 mm
03:17 PM 84.4°F29.1°C 55.2°F12.9°C 37% 6.9 mph WSW11.1 kmh WSW 15.2 mph24.5 kmh 30.13 in1020.3 mb - 0.00 in0.0 mm 0.00 in0.0 mm
03:22 PM 84.4°F29.1°C 55.9°F13.3°C 38% 5.1 mph NW8.2 kmh NW 10.7 mph17.2 kmh 30.13 in1020.3 mb - 0.00 in0.0 mm 0.00 in0.0 mm
03:27 PM 84.7°F29.3°C 55.6°F13.1°C 37% 7.8 mph W12.6 kmh W 16.3 mph26.2 kmh 30.13 in1020.3 mb - 0.00 in0.0 mm 0.00 in0.0 mm
03:32 PM 84.6°F29.2°C 55.4°F13.0°C 37% 3.6 mph W5.8 kmh W 12.1 mph19.5 kmh 30.16 in1021.3 mb - 0.00 in0.0 mm 0.00 in0.0 mm
03:37 PM 84.7°F29.3°C 54.9°F12.7°C 36% 7.4 mph NW11.9 kmh NW 15.0 mph24.1 kmh 30.16 in1021.3 mb - 0.00 in0.0 mm 0.00 in0.0 mm
03:42 PM 84.7°F29.3°C 55.6°F13.1°C 37% 5.8 mph NW9.3 kmh NW 11.4 mph18.3 kmh 30.16 in1021.3 mb - 0.00 in0.0 mm 0.00 in0.0 mm
03:47 PM 84.2°F29.0°C 54.3°F12.4°C 36% 5.4 mph NW8.7 kmh NW 12.1 mph19.5 kmh 30.13 in1020.3 mb - 0.00 in0.0 mm 0.00 in0.0 mm
03:52 PM 83.5°F28.6°C 54.5°F12.5°C 37% 8.1 mph NW13.0 kmh NW 16.8 mph27.0 kmh 30.13 in1020.3 mb - 0.00 in0.0 mm 0.00 in0.0 mm
03:57 PM 83.8°F28.8°C 54.9°F12.7°C 37% 7.6 mph NW12.2 kmh NW 14.3 mph23.0 kmh 30.13 in1020.3 mb - 0.00 in0.0 mm 0.00 in0.0 mm
04:02 PM 84.2°F29.0°C 54.3°F12.4°C 36% 7.4 mph W11.9 kmh W 16.1 mph25.9 kmh 30.16 in1021.3 mb - 0.00 in0.0 mm 0.00 in0.0 mm
04:07 PM 84.0°F28.9°C 55.0°F12.8°C 37% 8.7 mph W14.0 kmh W 15.4 mph24.8 kmh 30.16 in1021.3 mb - 0.00 in0.0 mm 0.00 in0.0 mm
04:12 PM 84.2°F29.0°C 54.3°F12.4°C 36% 6.7 mph WNW10.8 kmh WNW 12.1 mph19.5 kmh 30.16 in1021.3 mb - 0.00 in0.0 mm 0.00 in0.0 mm
04:17 PM 84.2°F29.0°C 53.6°F12.0°C 35% 6.3 mph WNW10.1 kmh WNW 13.0 mph20.9 kmh 30.16 in1021.3 mb - 0.00 in0.0 mm 0.00 in0.0 mm
04:22 PM 84.2°F29.0°C 54.3°F12.4°C 36% 8.3 mph NW13.4 kmh NW 14.5 mph23.3 kmh 30.16 in1021.3 mb - 0.00 in0.0 mm 0.00 in0.0 mm
04:27 PM 84.6°F29.2°C 54.7°F12.6°C 36% 6.9 mph NW11.1 kmh NW 13.4 mph21.6 kmh 30.16 in1021.3 mb - 0.00 in0.0 mm 0.00 in0.0 mm
04:32 PM 84.7°F29.3°C 54.9°F12.7°C 36% 6.0 mph NW9.7 kmh NW 11.4 mph18.3 kmh 30.16 in1021.3 mb - 0.00 in0.0 mm 0.00 in0.0 mm
04:37 PM 84.4°F29.1°C 54.5°F12.5°C 36% 6.3 mph WNW10.1 kmh WNW 13.4 mph21.6 kmh 30.16 in1021.3 mb - 0.00 in0.0 mm 0.00 in0.0 mm
04:42 PM 84.2°F29.0°C 54.3°F12.4°C 36% 7.4 mph NW11.9 kmh NW 16.6 mph26.7 kmh 30.16 in1021.3 mb - 0.00 in0.0 mm 0.00 in0.0 mm
04:47 PM 84.2°F29.0°C 53.6°F12.0°C 35% 8.1 mph NW13.0 kmh NW 14.1 mph22.7 kmh 30.16 in1021.3 mb - 0.00 in0.0 mm 0.00 in0.0 mm
04:52 PM 84.2°F29.0°C 54.3°F12.4°C 36% 6.9 mph NW11.1 kmh NW 15.0 mph24.1 kmh 30.16 in1021.3 mb - 0.00 in0.0 mm 0.00 in0.0 mm
04:57 PM 84.2°F29.0°C 54.3°F12.4°C 36% 6.9 mph NW11.1 kmh NW 16.6 mph26.7 kmh 30.16 in1021.3 mb - 0.00 in0.0 mm 0.00 in0.0 mm
05:02 PM 84.4°F29.1°C 53.8°F12.1°C 35% 7.2 mph NW11.6 kmh NW 15.2 mph24.5 kmh 30.16 in1021.3 mb - 0.00 in0.0 mm 0.00 in0.0 mm
05:07 PM 84.2°F29.0°C 53.6°F12.0°C 35% 5.8 mph NW9.3 kmh NW 11.6 mph18.7 kmh 30.16 in1021.3 mb - 0.00 in0.0 mm 0.00 in0.0 mm
05:12 PM 83.8°F28.8°C 53.2°F11.8°C 35% 6.7 mph WNW10.8 kmh WNW 13.6 mph21.9 kmh 30.16 in1021.3 mb - 0.00 in0.0 mm 0.00 in0.0 mm
05:17 PM 84.0°F28.9°C 55.0°F12.8°C 37% 7.2 mph NW11.6 kmh NW 17.4 mph28.0 kmh 30.16 in1021.3 mb - 0.00 in0.0 mm 0.00 in0.0 mm
05:22 PM 84.0°F28.9°C 55.0°F12.8°C 37% 8.3 mph W13.4 kmh W 16.6 mph26.7 kmh 30.16 in1021.3 mb - 0.00 in0.0 mm 0.00 in0.0 mm
05:27 PM 84.2°F29.0°C 54.3°F12.4°C 36% 6.9 mph WNW11.1 kmh WNW 14.1 mph22.7 kmh 30.16 in1021.3 mb - 0.00 in0.0 mm 0.00 in0.0 mm
05:32 PM 84.0°F28.9°C 54.1°F12.3°C 36% 5.4 mph NW8.7 kmh NW 11.9 mph19.2 kmh 30.16 in1021.3 mb - 0.00 in0.0 mm 0.00 in0.0 mm
05:37 PM 84.0°F28.9°C 54.1°F12.3°C 36% 5.1 mph WNW8.2 kmh WNW 12.5 mph20.1 kmh 30.16 in1021.3 mb - 0.00 in0.0 mm 0.00 in0.0 mm
05:42 PM 84.2°F29.0°C 54.3°F12.4°C 36% 6.0 mph W9.7 kmh W 11.6 mph18.7 kmh 30.16 in1021.3 mb - 0.00 in0.0 mm 0.00 in0.0 mm
05:47 PM 84.2°F29.0°C 54.3°F12.4°C 36% 5.4 mph NW8.7 kmh NW 11.2 mph18.0 kmh 30.16 in1021.3 mb - 0.00 in0.0 mm 0.00 in0.0 mm
05:52 PM 84.0°F28.9°C 55.0°F12.8°C 37% 2.7 mph WSW4.3 kmh WSW 7.4 mph11.9 kmh 30.16 in1021.3 mb - 0.00 in0.0 mm 0.00 in0.0 mm
05:57 PM 83.7°F28.7°C 54.0°F12.2°C 36% 4.3 mph NNW6.9 kmh NNW 8.5 mph13.7 kmh 30.16 in1021.3 mb - 0.00 in0.0 mm 0.00 in0.0 mm
06:02 PM 83.7°F28.7°C 54.7°F12.6°C 37% 7.8 mph NW12.6 kmh NW 14.1 mph22.7 kmh 30.16 in1021.3 mb - 0.00 in0.0 mm 0.00 in0.0 mm
06:07 PM 83.5°F28.6°C 54.5°F12.5°C 37% 6.5 mph W10.5 kmh W 11.4 mph18.3 kmh 30.16 in1021.3 mb - 0.00 in0.0 mm 0.00 in0.0 mm
06:12 PM 83.5°F28.6°C 54.5°F12.5°C 37% 6.5 mph NW10.5 kmh NW 12.3 mph19.8 kmh 30.16 in1021.3 mb - 0.00 in0.0 mm 0.00 in0.0 mm
06:17 PM 83.5°F28.6°C 54.5°F12.5°C 37% 6.3 mph WNW10.1 kmh WNW 11.4 mph18.3 kmh 30.16 in1021.3 mb - 0.00 in0.0 mm 0.00 in0.0 mm
06:22 PM 83.3°F28.5°C 54.3°F12.4°C 37% 3.6 mph W5.8 kmh W 10.1 mph16.3 kmh 30.16 in1021.3 mb - 0.00 in0.0 mm 0.00 in0.0 mm
06:27 PM 83.3°F28.5°C 54.3°F12.4°C 37% 5.4 mph WNW8.7 kmh WNW 11.0 mph17.7 kmh 30.16 in1021.3 mb - 0.00 in0.0 mm 0.00 in0.0 mm
06:32 PM 83.3°F28.5°C 55.0°F12.8°C 38% 4.7 mph NW7.6 kmh NW 11.9 mph19.2 kmh 30.16 in1021.3 mb - 0.00 in0.0 mm 0.00 in0.0 mm
06:37 PM 83.1°F28.4°C 54.9°F12.7°C 38% 4.0 mph NW6.4 kmh NW 8.9 mph14.3 kmh 30.16 in1021.3 mb - 0.00 in0.0 mm 0.00 in0.0 mm
06:42 PM 82.9°F28.3°C 54.7°F12.6°C 38% 4.9 mph W7.9 kmh W 4.9 mph7.9 kmh 30.16 in1021.3 mb - 0.00 in0.0 mm 0.00 in0.0 mm
06:47 PM 82.8°F28.2°C 54.5°F12.5°C 38% 4.7 mph W7.6 kmh W 9.2 mph14.8 kmh 30.16 in1021.3 mb - 0.00 in0.0 mm 0.00 in0.0 mm
06:52 PM 82.6°F28.1°C 55.0°F12.8°C 39% 5.8 mph WNW9.3 kmh WNW 10.3 mph16.6 kmh 30.16 in1021.3 mb - 0.00 in0.0 mm 0.00 in0.0 mm
06:57 PM 82.2°F27.9°C 54.9°F12.7°C 39% 4.0 mph NW6.4 kmh NW 4.0 mph6.4 kmh 30.16 in1021.3 mb - 0.00 in0.0 mm 0.00 in0.0 mm
07:02 PM 81.5°F27.5°C 54.1°F12.3°C 39% 4.3 mph WNW6.9 kmh WNW 9.2 mph14.8 kmh 30.16 in1021.3 mb - 0.00 in0.0 mm 0.00 in0.0 mm
07:07 PM 81.1°F27.3°C 53.8°F12.1°C 39% 4.9 mph WNW7.9 kmh WNW 8.5 mph13.7 kmh 30.16 in1021.3 mb - 0.00 in0.0 mm 0.00 in0.0 mm
07:12 PM 81.0°F27.2°C 54.3°F12.4°C 40% 4.3 mph WNW6.9 kmh WNW 9.2 mph14.8 kmh 30.16 in1021.3 mb - 0.00 in0.0 mm 0.00 in0.0 mm
07:17 PM 80.6°F27.0°C 54.1°F12.3°C 40% 4.0 mph W6.4 kmh W 7.6 mph12.2 kmh 30.16 in1021.3 mb - 0.00 in0.0 mm 0.00 in0.0 mm
07:22 PM 80.2°F26.8°C 54.3°F12.4°C 41% 3.1 mph WSW5.0 kmh WSW 6.9 mph11.1 kmh 30.16 in1021.3 mb - 0.00 in0.0 mm 0.00 in0.0 mm
07:27 PM 79.9°F26.6°C 54.1°F12.3°C 41% 4.5 mph W7.2 kmh W 9.2 mph14.8 kmh 30.16 in1021.3 mb - 0.00 in0.0 mm 0.00 in0.0 mm
07:32 PM 79.5°F26.4°C 53.8°F12.1°C 41% 4.0 mph W6.4 kmh W 8.7 mph14.0 kmh 30.16 in1021.3 mb - 0.00 in0.0 mm 0.00 in0.0 mm
07:37 PM 79.5°F26.4°C 53.8°F12.1°C 41% 4.0 mph W6.4 kmh W 9.2 mph14.8 kmh 30.16 in1021.3 mb - 0.00 in0.0 mm 0.00 in0.0 mm
07:42 PM 79.3°F26.3°C 54.3°F12.4°C 42% 4.5 mph WNW7.2 kmh WNW 7.6 mph12.2 kmh 30.16 in1021.3 mb - 0.00 in0.0 mm 0.00 in0.0 mm
07:47 PM 79.0°F26.1°C 54.0°F12.2°C 42% 3.1 mph WNW5.0 kmh WNW 8.5 mph13.7 kmh 30.16 in1021.3 mb - 0.00 in0.0 mm 0.00 in0.0 mm
07:52 PM 78.6°F25.9°C 54.3°F12.4°C 43% 2.0 mph WSW3.2 kmh WSW 4.3 mph6.9 kmh 30.16 in1021.3 mb - 0.00 in0.0 mm 0.00 in0.0 mm
07:57 PM 78.1°F25.6°C 54.3°F12.4°C 44% 3.6 mph WSW5.8 kmh WSW 7.6 mph12.2 kmh 30.16 in1021.3 mb - 0.00 in0.0 mm 0.00 in0.0 mm
08:02 PM 77.9°F25.5°C 54.3°F12.4°C 44% 4.3 mph WSW6.9 kmh WSW 7.4 mph11.9 kmh 30.16 in1021.3 mb - 0.00 in0.0 mm 0.00 in0.0 mm
08:07 PM 77.4°F25.2°C 54.3°F12.4°C 45% 3.4 mph WSW5.5 kmh WSW 4.7 mph7.6 kmh 30.16 in1021.3 mb - 0.00 in0.0 mm 0.00 in0.0 mm
08:12 PM 77.0°F25.0°C 54.7°F12.6°C 46% 2.9 mph SW4.7 kmh SW 5.4 mph8.7 kmh 30.16 in1021.3 mb - 0.00 in0.0 mm 0.00 in0.0 mm
08:17 PM 76.6°F24.8°C 54.9°F12.7°C 47% 3.1 mph SW5.0 kmh SW 4.9 mph7.9 kmh 30.16 in1021.3 mb - 0.00 in0.0 mm 0.00 in0.0 mm
08:22 PM 76.3°F24.6°C 55.2°F12.9°C 48% 2.7 mph WSW4.3 kmh WSW 5.1 mph8.2 kmh 30.16 in1021.3 mb - 0.00 in0.0 mm 0.00 in0.0 mm
08:27 PM 76.1°F24.5°C 55.0°F12.8°C 48% 3.4 mph WSW5.5 kmh WSW 5.6 mph9.0 kmh 30.16 in1021.3 mb - 0.00 in0.0 mm 0.00 in0.0 mm
08:32 PM 75.9°F24.4°C 54.9°F12.7°C 48% 2.0 mph SW3.2 kmh SW 5.8 mph9.3 kmh 30.19 in1022.4 mb - 0.00 in0.0 mm 0.00 in0.0 mm
08:37 PM 75.7°F24.3°C 55.2°F12.9°C 49% 2.2 mph WSW3.5 kmh WSW 6.3 mph10.1 kmh 30.19 in1022.4 mb - 0.00 in0.0 mm 0.00 in0.0 mm
08:42 PM 75.7°F24.3°C 55.2°F12.9°C 49% 2.9 mph WSW4.7 kmh WSW 2.9 mph4.7 kmh 30.19 in1022.4 mb - 0.00 in0.0 mm 0.00 in0.0 mm
08:47 PM 75.6°F24.2°C 55.0°F12.8°C 49% 2.7 mph W4.3 kmh W 5.8 mph9.3 kmh 30.13 in1020.3 mb - 0.00 in0.0 mm 0.00 in0.0 mm
08:52 PM 75.6°F24.2°C 55.6°F13.1°C 50% 3.8 mph W6.1 kmh W 8.1 mph13.0 kmh 30.13 in1020.3 mb - 0.00 in0.0 mm 0.00 in0.0 mm
08:57 PM 75.2°F24.0°C 55.2°F12.9°C 50% 3.1 mph WNW5.0 kmh WNW 7.4 mph11.9 kmh 30.13 in1020.3 mb - 0.00 in0.0 mm 0.00 in0.0 mm
09:02 PM 74.8°F23.8°C 55.0°F12.8°C 50% 2.5 mph WSW4.0 kmh WSW 5.8 mph9.3 kmh 30.13 in1020.3 mb - 0.00 in0.0 mm 0.00 in0.0 mm
09:07 PM 74.7°F23.7°C 55.4°F13.0°C 51% 2.9 mph WSW4.7 kmh WSW 5.6 mph9.0 kmh 30.13 in1020.3 mb - 0.00 in0.0 mm 0.00 in0.0 mm
09:12 PM 74.7°F23.7°C 55.4°F13.0°C 51% 2.2 mph WSW3.5 kmh WSW 5.1 mph8.2 kmh 30.13 in1020.3 mb - 0.00 in0.0 mm 0.00 in0.0 mm
09:17 PM 74.7°F23.7°C 55.4°F13.0°C 51% 3.6 mph WSW5.8 kmh WSW 6.7 mph10.8 kmh 30.16 in1021.3 mb - 0.00 in0.0 mm 0.00 in0.0 mm
09:22 PM 74.7°F23.7°C 55.4°F13.0°C 51% 3.1 mph WSW5.0 kmh WSW 6.5 mph10.5 kmh 30.16 in1021.3 mb - 0.00 in0.0 mm 0.00 in0.0 mm
09:27 PM 74.7°F23.7°C 55.4°F13.0°C 51% 3.4 mph W5.5 kmh W 7.6 mph12.2 kmh 30.16 in1021.3 mb - 0.00 in0.0 mm 0.00 in0.0 mm
09:32 PM 74.5°F23.6°C 55.2°F12.9°C 51% 3.1 mph WSW5.0 kmh WSW 6.5 mph10.5 kmh 30.16 in1021.3 mb - 0.00 in0.0 mm 0.00 in0.0 mm
09:37 PM 74.5°F23.6°C 55.2°F12.9°C 51% 2.7 mph W4.3 kmh W 7.8 mph12.6 kmh 30.16 in1021.3 mb - 0.00 in0.0 mm 0.00 in0.0 mm
09:42 PM 74.3°F23.5°C 55.0°F12.8°C 51% 2.7 mph WSW4.3 kmh WSW 7.2 mph11.6 kmh 30.16 in1021.3 mb - 0.00 in0.0 mm 0.00 in0.0 mm
09:47 PM 74.3°F23.5°C 55.0°F12.8°C 51% 2.2 mph WSW3.5 kmh WSW 5.4 mph8.7 kmh 30.16 in1021.3 mb - 0.00 in0.0 mm 0.00 in0.0 mm
09:52 PM 73.9°F23.3°C 55.2°F12.9°C 52% 1.3 mph WSW2.1 kmh WSW 1.3 mph2.1 kmh 30.16 in1021.3 mb - 0.00 in0.0 mm 0.00 in0.0 mm
09:57 PM 73.4°F23.0°C 54.7°F12.6°C 52% 0.2 mph W0.3 kmh W 2.2 mph3.5 kmh 30.16 in1021.3 mb - 0.00 in0.0 mm 0.00 in0.0 mm
10:02 PM 72.9°F22.7°C 54.7°F12.6°C 53% Calm Calm -- 30.16 in1021.3 mb - 0.00 in0.0 mm 0.00 in0.0 mm
10:07 PM 72.5°F22.5°C 54.9°F12.7°C 54% Calm Calm -- 30.16 in1021.3 mb - 0.00 in0.0 mm 0.00 in0.0 mm
10:12 PM 72.0°F22.2°C 54.9°F12.7°C 55% Calm Calm -- 30.16 in1021.3 mb - 0.00 in0.0 mm 0.00 in0.0 mm
10:17 PM 71.4°F21.9°C 55.4°F13.0°C 57% Calm Calm -- 30.16 in1021.3 mb - 0.00 in0.0 mm 0.00 in0.0 mm
10:22 PM 71.1°F21.7°C 55.6°F13.1°C 58% 1.8 mph NE2.9 kmh NE 3.6 mph5.8 kmh 30.16 in1021.3 mb - 0.00 in0.0 mm 0.00 in0.0 mm
10:27 PM 70.7°F21.5°C 55.8°F13.2°C 59% 0.7 mph NE1.1 kmh NE 2.7 mph4.3 kmh 30.16 in1021.3 mb - 0.00 in0.0 mm 0.00 in0.0 mm
10:32 PM 70.7°F21.5°C 55.8°F13.2°C 59% Calm Calm -- 30.16 in1021.3 mb - 0.00 in0.0 mm 0.00 in0.0 mm
10:37 PM 70.2°F21.2°C 55.2°F12.9°C 59% Calm Calm -- 30.16 in1021.3 mb - 0.00 in0.0 mm 0.00 in0.0 mm
10:42 PM 69.8°F21.0°C 55.2°F12.9°C 60% Calm Calm -- 30.16 in1021.3 mb - 0.00 in0.0 mm 0.00 in0.0 mm
10:47 PM 69.8°F21.0°C 55.2°F12.9°C 60% Calm Calm 0.9 mph1.4 kmh 30.16 in1021.3 mb - 0.00 in0.0 mm 0.00 in0.0 mm
10:52 PM 69.6°F20.9°C 55.6°F13.1°C 61% Calm Calm -- 30.16 in1021.3 mb - 0.00 in0.0 mm 0.00 in0.0 mm
10:57 PM 69.3°F20.7°C 55.2°F12.9°C 61% Calm Calm -- 30.16 in1021.3 mb - 0.00 in0.0 mm 0.00 in0.0 mm
11:02 PM 68.9°F20.5°C 54.9°F12.7°C 61% Calm Calm -- 30.19 in1022.4 mb - 0.00 in0.0 mm 0.00 in0.0 mm
11:07 PM 68.5°F20.3°C 54.5°F12.5°C 61% Calm Calm -- 30.19 in1022.4 mb - 0.00 in0.0 mm 0.00 in0.0 mm
11:12 PM 68.4°F20.2°C 55.2°F12.9°C 63% Calm Calm -- 30.19 in1022.4 mb - 0.00 in0.0 mm 0.00 in0.0 mm
11:17 PM 68.2°F20.1°C 54.7°F12.6°C 62% 0.2 mph NW0.3 kmh NW 2.0 mph3.2 kmh 30.19 in1022.4 mb - 0.00 in0.0 mm 0.00 in0.0 mm
11:22 PM 68.0°F20.0°C 54.9°F12.7°C 63% Calm Calm -- 30.19 in1022.4 mb - 0.00 in0.0 mm 0.00 in0.0 mm
11:27 PM 68.0°F20.0°C 55.4°F13.0°C 64% Calm Calm -- 30.19 in1022.4 mb - 0.00 in0.0 mm 0.00 in0.0 mm
11:32 PM 67.8°F19.9°C 56.5°F13.6°C 67% Calm Calm -- 30.19 in1022.4 mb - 0.00 in0.0 mm 0.00 in0.0 mm
11:37 PM 67.6°F19.8°C 55.4°F13.0°C 65% Calm Calm -- 30.19 in1022.4 mb - 0.00 in0.0 mm 0.00 in0.0 mm
11:42 PM 67.5°F19.7°C 56.1°F13.4°C 67% Calm Calm -- 30.19 in1022.4 mb - 0.00 in0.0 mm 0.00 in0.0 mm
11:47 PM 67.3°F19.6°C 55.6°F13.1°C 66% Calm Calm -- 30.16 in1021.3 mb - 0.00 in0.0 mm 0.00 in0.0 mm
11:52 PM 67.1°F19.5°C 55.4°F13.0°C 66% Calm Calm -- 30.16 in1021.3 mb - 0.00 in0.0 mm 0.00 in0.0 mm
11:57 PM 66.9°F19.4°C 55.6°F13.1°C 67% Calm Calm -- 30.16 in1021.3 mb - 0.00 in0.0 mm 0.00 in0.0 mm